Terminal Aerodrome Forecast
Issued by NWS

Home | Current Version | Previous Version | Text Only | Print | Product List | Glossary On
Versions: 1 2 3 4 5 6 7 8 9 10 11 12 13 14 15 16 17 18 19 20 21 22 23 24 25
000
FTUS41 KPHI 220100 CCB
TAFPNE
TAF COR
KPNE 220118Z 2201/2224 23005KT P6SM FEW025 BKN200
      TEMPO 2202/2203 VRB15G25KT 5SM -SHRA BKN050
     FM220400 27007KT P6SM SCT050
     FM221300 32012G20KT P6SM FEW050
     FM222300 33008KT P6SM SKC=

USA.gov is the U.S. government's official web portal to all federal, state and local government web resources and services.